sensor_id;sensor_type;location;lat;lon;timestamp;P1;durP1;ratioP1;P2;durP2;ratioP2
23470;SDS011;11908;50.806;4.424;2023-03-23T00:02:11;6.82;;;4.35;;
23470;SDS011;11908;50.806;4.424;2023-03-23T00:04:37;5.72;;;4.45;;
23470;SDS011;11908;50.806;4.424;2023-03-23T00:07:02;8.52;;;4.45;;
23470;SDS011;11908;50.806;4.424;2023-03-23T00:09:28;6.90;;;4.20;;
23470;SDS011;11908;50.806;4.424;2023-03-23T00:11:55;6.55;;;4.15;;
23470;SDS011;11908;50.806;4.424;2023-03-23T00:14:30;7.32;;;4.30;;
23470;SDS011;11908;50.806;4.424;2023-03-23T00:17:06;7.88;;;4.72;;
23470;SDS011;11908;50.806;4.424;2023-03-23T00:19:34;6.25;;;4.30;;
23470;SDS011;11908;50.806;4.424;2023-03-23T00:22:10;8.18;;;4.15;;
23470;SDS011;11908;50.806;4.424;2023-03-23T00:24:40;5.40;;;4.00;;
23470;SDS011;11908;50.806;4.424;2023-03-23T00:27:06;11.30;;;4.28;;
23470;SDS011;11908;50.806;4.424;2023-03-23T00:29:33;6.40;;;4.28;;
23470;SDS011;11908;50.806;4.424;2023-03-23T00:31:59;7.50;;;4.30;;
23470;SDS011;11908;50.806;4.424;2023-03-23T00:34:27;8.32;;;4.57;;
23470;SDS011;11908;50.806;4.424;2023-03-23T00:36:59;6.70;;;3.90;;
23470;SDS011;11908;50.806;4.424;2023-03-23T00:39:25;7.43;;;4.80;;
23470;SDS011;11908;50.806;4.424;2023-03-23T00:41:52;6.45;;;4.20;;
23470;SDS011;11908;50.806;4.424;2023-03-23T00:44:19;6.30;;;4.40;;
23470;SDS011;11908;50.806;4.424;2023-03-23T00:46:48;5.97;;;4.30;;
23470;SDS011;11908;50.806;4.424;2023-03-23T00:49:15;6.88;;;4.50;;
23470;SDS011;11908;50.806;4.424;2023-03-23T00:51:44;7.15;;;4.07;;
23470;SDS011;11908;50.806;4.424;2023-03-23T00:54:10;6.03;;;4.00;;
23470;SDS011;11908;50.806;4.424;2023-03-23T00:56:37;8.10;;;4.50;;
23470;SDS011;11908;50.806;4.424;2023-03-23T00:59:04;6.13;;;4.22;;
23470;SDS011;11908;50.806;4.424;2023-03-23T01:01:30;6.80;;;4.75;;
23470;SDS011;11908;50.806;4.424;2023-03-23T01:04:00;5.97;;;3.95;;
23470;SDS011;11908;50.806;4.424;2023-03-23T01:06:26;7.72;;;4.10;;
23470;SDS011;11908;50.806;4.424;2023-03-23T01:08:53;5.60;;;4.07;;
23470;SDS011;11908;50.806;4.424;2023-03-23T01:11:20;7.97;;;4.55;;
23470;SDS011;11908;50.806;4.424;2023-03-23T01:13:46;6.53;;;4.80;;
23470;SDS011;11908;50.806;4.424;2023-03-23T01:16:12;7.30;;;4.15;;
23470;SDS011;11908;50.806;4.424;2023-03-23T01:18:38;7.18;;;4.28;;
23470;SDS011;11908;50.806;4.424;2023-03-23T01:21:08;6.85;;;4.30;;
23470;SDS011;11908;50.806;4.424;2023-03-23T01:23:36;7.47;;;4.53;;
23470;SDS011;11908;50.806;4.424;2023-03-23T01:26:03;7.28;;;4.57;;
23470;SDS011;11908;50.806;4.424;2023-03-23T01:28:33;7.47;;;4.22;;
23470;SDS011;11908;50.806;4.424;2023-03-23T01:31:03;4.75;;;3.65;;
23470;SDS011;11908;50.806;4.424;2023-03-23T01:33:37;6.10;;;4.05;;
23470;SDS011;11908;50.806;4.424;2023-03-23T01:36:07;4.65;;;4.10;;
23470;SDS011;11908;50.806;4.424;2023-03-23T01:38:37;5.75;;;4.20;;
23470;SDS011;11908;50.806;4.424;2023-03-23T01:41:03;6.00;;;3.95;;
23470;SDS011;11908;50.806;4.424;2023-03-23T01:43:30;6.10;;;3.88;;
23470;SDS011;11908;50.806;4.424;2023-03-23T01:45:56;5.57;;;4.07;;
23470;SDS011;11908;50.806;4.424;2023-03-23T01:48:35;8.75;;;3.90;;
23470;SDS011;11908;50.806;4.424;2023-03-23T01:51:04;3.92;;;3.53;;
23470;SDS011;11908;50.806;4.424;2023-03-23T01:53:38;6.30;;;4.13;;
23470;SDS011;11908;50.806;4.424;2023-03-23T01:58:38;5.05;;;3.13;;
23470;SDS011;11908;50.806;4.424;2023-03-23T02:01:05;7.45;;;3.90;;
23470;SDS011;11908;50.806;4.424;2023-03-23T02:03:36;6.32;;;3.90;;
23470;SDS011;11908;50.806;4.424;2023-03-23T02:06:04;6.75;;;4.07;;
23470;SDS011;11908;50.806;4.424;2023-03-23T02:08:30;5.65;;;3.72;;
23470;SDS011;11908;50.806;4.424;2023-03-23T02:10:58;4.40;;;3.63;;
23470;SDS011;11908;50.806;4.424;2023-03-23T02:13:24;6.00;;;3.83;;
23470;SDS011;11908;50.806;4.424;2023-03-23T02:21:27;6.28;;;3.03;;
23470;SDS011;11908;50.806;4.424;2023-03-23T02:24:10;8.93;;;3.80;;
23470;SDS011;11908;50.806;4.424;2023-03-23T02:35:06;4.47;;;2.83;;
23470;SDS011;11908;50.806;4.424;2023-03-23T02:37:41;5.15;;;2.45;;
23470;SDS011;11908;50.806;4.424;2023-03-23T02:40:16;5.60;;;2.60;;
23470;SDS011;11908;50.806;4.424;2023-03-23T02:42:49;5.32;;;2.50;;
23470;SDS011;11908;50.806;4.424;2023-03-23T02:45:19;4.57;;;2.38;;
23470;SDS011;11908;50.806;4.424;2023-03-23T02:47:48;5.07;;;2.47;;
23470;SDS011;11908;50.806;4.424;2023-03-23T02:50:17;4.32;;;2.22;;
23470;SDS011;11908;50.806;4.424;2023-03-23T02:52:45;5.90;;;2.65;;
23470;SDS011;11908;50.806;4.424;2023-03-23T02:55:13;7.68;;;2.42;;
23470;SDS011;11908;50.806;4.424;2023-03-23T02:57:39;4.65;;;1.73;;
23470;SDS011;11908;50.806;4.424;2023-03-23T03:00:06;5.45;;;2.30;;
23470;SDS011;11908;50.806;4.424;2023-03-23T03:02:36;4.32;;;2.22;;
23470;SDS011;11908;50.806;4.424;2023-03-23T03:10:34;4.50;;;2.13;;
23470;SDS011;11908;50.806;4.424;2023-03-23T03:13:14;4.43;;;2.03;;
23470;SDS011;11908;50.806;4.424;2023-03-23T03:15:44;6.00;;;1.92;;
23470;SDS011;11908;50.806;4.424;2023-03-23T03:18:38;4.55;;;1.70;;
23470;SDS011;11908;50.806;4.424;2023-03-23T03:21:11;4.35;;;1.90;;
23470;SDS011;11908;50.806;4.424;2023-03-23T03:23:40;7.70;;;2.03;;
23470;SDS011;11908;50.806;4.424;2023-03-23T03:26:09;5.95;;;1.95;;
23470;SDS011;11908;50.806;4.424;2023-03-23T03:28:37;2.83;;;1.63;;
23470;SDS011;11908;50.806;4.424;2023-03-23T03:31:04;4.82;;;2.05;;
23470;SDS011;11908;50.806;4.424;2023-03-23T03:33:31;5.70;;;1.80;;
23470;SDS011;11908;50.806;4.424;2023-03-23T03:36:02;2.83;;;1.63;;
23470;SDS011;11908;50.806;4.424;2023-03-23T03:38:40;4.28;;;2.03;;
23470;SDS011;11908;50.806;4.424;2023-03-23T03:41:07;6.43;;;2.25;;
23470;SDS011;11908;50.806;4.424;2023-03-23T03:43:33;2.80;;;1.70;;
23470;SDS011;11908;50.806;4.424;2023-03-23T03:46:00;8.32;;;2.10;;
23470;SDS011;11908;50.806;4.424;2023-03-23T03:48:25;4.40;;;2.03;;
23470;SDS011;11908;50.806;4.424;2023-03-23T03:50:51;6.18;;;2.47;;
23470;SDS011;11908;50.806;4.424;2023-03-23T03:53:17;5.57;;;2.30;;
23470;SDS011;11908;50.806;4.424;2023-03-23T03:55:43;5.20;;;2.17;;
23470;SDS011;11908;50.806;4.424;2023-03-23T03:58:10;4.18;;;2.28;;
23470;SDS011;11908;50.806;4.424;2023-03-23T04:00:36;4.38;;;2.10;;
23470;SDS011;11908;50.806;4.424;2023-03-23T04:03:01;5.95;;;2.40;;
23470;SDS011;11908;50.806;4.424;2023-03-23T04:05:27;8.23;;;2.45;;
23470;SDS011;11908;50.806;4.424;2023-03-23T04:07:55;8.77;;;2.42;;
23470;SDS011;11908;50.806;4.424;2023-03-23T04:10:26;4.88;;;2.35;;
23470;SDS011;11908;50.806;4.424;2023-03-23T04:12:54;5.57;;;2.03;;
23470;SDS011;11908;50.806;4.424;2023-03-23T04:15:21;6.30;;;2.05;;
23470;SDS011;11908;50.806;4.424;2023-03-23T04:17:47;7.30;;;2.08;;
23470;SDS011;11908;50.806;4.424;2023-03-23T04:20:12;8.60;;;2.25;;
23470;SDS011;11908;50.806;4.424;2023-03-23T04:22:48;5.68;;;2.03;;
23470;SDS011;11908;50.806;4.424;2023-03-23T04:25:17;11.82;;;2.47;;
23470;SDS011;11908;50.806;4.424;2023-03-23T04:27:46;6.15;;;2.20;;
23470;SDS011;11908;50.806;4.424;2023-03-23T04:30:17;7.60;;;1.75;;
23470;SDS011;11908;50.806;4.424;2023-03-23T04:32:44;12.02;;;2.70;;
23470;SDS011;11908;50.806;4.424;2023-03-23T04:35:12;10.10;;;2.10;;
23470;SDS011;11908;50.806;4.424;2023-03-23T04:37:39;9.60;;;2.17;;
23470;SDS011;11908;50.806;4.424;2023-03-23T04:40:06;7.70;;;2.03;;
23470;SDS011;11908;50.806;4.424;2023-03-23T04:42:40;8.52;;;2.42;;
23470;SDS011;11908;50.806;4.424;2023-03-23T04:45:11;6.32;;;1.73;;
23470;SDS011;11908;50.806;4.424;2023-03-23T04:47:39;8.52;;;2.05;;
23470;SDS011;11908;50.806;4.424;2023-03-23T04:50:15;4.63;;;1.90;;
23470;SDS011;11908;50.806;4.424;2023-03-23T04:52:40;5.05;;;1.70;;
23470;SDS011;11908;50.806;4.424;2023-03-23T04:55:10;6.97;;;1.85;;
23470;SDS011;11908;50.806;4.424;2023-03-23T04:57:37;7.22;;;1.77;;
23470;SDS011;11908;50.806;4.424;2023-03-23T05:00:03;8.73;;;2.13;;
23470;SDS011;11908;50.806;4.424;2023-03-23T05:02:36;7.68;;;1.83;;
23470;SDS011;11908;50.806;4.424;2023-03-23T05:05:05;5.57;;;1.80;;
23470;SDS011;11908;50.806;4.424;2023-03-23T05:07:31;9.60;;;1.75;;
23470;SDS011;11908;50.806;4.424;2023-03-23T05:09:57;5.05;;;1.83;;
23470;SDS011;11908;50.806;4.424;2023-03-23T05:12:23;8.88;;;1.80;;
23470;SDS011;11908;50.806;4.424;2023-03-23T05:14:48;6.43;;;1.73;;
23470;SDS011;11908;50.806;4.424;2023-03-23T05:17:14;6.95;;;1.52;;
23470;SDS011;11908;50.806;4.424;2023-03-23T05:19:42;6.63;;;1.35;;
23470;SDS011;11908;50.806;4.424;2023-03-23T05:22:14;4.95;;;1.60;;
23470;SDS011;11908;50.806;4.424;2023-03-23T05:24:40;4.38;;;1.58;;
23470;SDS011;11908;50.806;4.424;2023-03-23T05:27:07;5.40;;;2.00;;
23470;SDS011;11908;50.806;4.424;2023-03-23T05:29:36;4.30;;;1.40;;
23470;SDS011;11908;50.806;4.424;2023-03-23T05:32:05;3.90;;;1.70;;
23470;SDS011;11908;50.806;4.424;2023-03-23T05:34:32;7.25;;;1.60;;
23470;SDS011;11908;50.806;4.424;2023-03-23T05:36:59;6.93;;;2.15;;
23470;SDS011;11908;50.806;4.424;2023-03-23T05:39:27;5.68;;;1.83;;
23470;SDS011;11908;50.806;4.424;2023-03-23T05:41:53;10.13;;;2.22;;
23470;SDS011;11908;50.806;4.424;2023-03-23T05:44:19;5.80;;;2.17;;
23470;SDS011;11908;50.806;4.424;2023-03-23T05:46:45;5.70;;;1.63;;
23470;SDS011;11908;50.806;4.424;2023-03-23T05:49:11;5.55;;;1.73;;
23470;SDS011;11908;50.806;4.424;2023-03-23T05:51:38;2.78;;;1.60;;
23470;SDS011;11908;50.806;4.424;2023-03-23T05:54:04;6.03;;;2.10;;
23470;SDS011;11908;50.806;4.424;2023-03-23T05:56:30;8.63;;;1.88;;
23470;SDS011;11908;50.806;4.424;2023-03-23T05:58:57;5.80;;;1.80;;
23470;SDS011;11908;50.806;4.424;2023-03-23T06:01:23;5.43;;;1.92;;
23470;SDS011;11908;50.806;4.424;2023-03-23T06:03:49;15.07;;;2.67;;
23470;SDS011;11908;50.806;4.424;2023-03-23T06:06:19;6.82;;;2.05;;
23470;SDS011;11908;50.806;4.424;2023-03-23T06:08:45;6.65;;;2.10;;
23470;SDS011;11908;50.806;4.424;2023-03-23T06:11:11;6.60;;;1.92;;
23470;SDS011;11908;50.806;4.424;2023-03-23T06:13:38;4.80;;;2.47;;
23470;SDS011;11908;50.806;4.424;2023-03-23T06:16:07;5.68;;;1.95;;
23470;SDS011;11908;50.806;4.424;2023-03-23T06:18:33;5.35;;;2.10;;
23470;SDS011;11908;50.806;4.424;2023-03-23T06:21:02;5.85;;;2.40;;
23470;SDS011;11908;50.806;4.424;2023-03-23T06:23:28;7.25;;;2.10;;
23470;SDS011;11908;50.806;4.424;2023-03-23T06:25:55;7.90;;;2.35;;
23470;SDS011;11908;50.806;4.424;2023-03-23T06:28:24;10.13;;;2.10;;
23470;SDS011;11908;50.806;4.424;2023-03-23T06:30:50;8.38;;;2.15;;
23470;SDS011;11908;50.806;4.424;2023-03-23T06:33:16;4.55;;;2.13;;
23470;SDS011;11908;50.806;4.424;2023-03-23T06:35:42;6.75;;;2.38;;
23470;SDS011;11908;50.806;4.424;2023-03-23T06:38:08;8.05;;;2.22;;
23470;SDS011;11908;50.806;4.424;2023-03-23T06:40:34;8.98;;;2.40;;
23470;SDS011;11908;50.806;4.424;2023-03-23T06:43:01;8.05;;;2.38;;
23470;SDS011;11908;50.806;4.424;2023-03-23T06:45:27;6.60;;;2.30;;
23470;SDS011;11908;50.806;4.424;2023-03-23T06:47:52;9.95;;;2.88;;
23470;SDS011;11908;50.806;4.424;2023-03-23T06:50:18;6.15;;;2.33;;
23470;SDS011;11908;50.806;4.424;2023-03-23T06:52:47;6.45;;;2.22;;
23470;SDS011;11908;50.806;4.424;2023-03-23T06:55:14;6.07;;;2.10;;
23470;SDS011;11908;50.806;4.424;2023-03-23T06:57:42;7.10;;;2.03;;
23470;SDS011;11908;50.806;4.424;2023-03-23T07:00:09;9.32;;;3.00;;
23470;SDS011;11908;50.806;4.424;2023-03-23T07:02:37;7.05;;;2.00;;
23470;SDS011;11908;50.806;4.424;2023-03-23T07:05:03;6.15;;;1.90;;
23470;SDS011;11908;50.806;4.424;2023-03-23T07:07:29;4.95;;;2.15;;
23470;SDS011;11908;50.806;4.424;2023-03-23T07:09:56;6.07;;;1.90;;
23470;SDS011;11908;50.806;4.424;2023-03-23T07:12:22;8.20;;;2.47;;
23470;SDS011;11908;50.806;4.424;2023-03-23T07:14:47;8.00;;;2.38;;
23470;SDS011;11908;50.806;4.424;2023-03-23T07:17:13;8.75;;;2.25;;
23470;SDS011;11908;50.806;4.424;2023-03-23T07:19:39;7.72;;;2.58;;
23470;SDS011;11908;50.806;4.424;2023-03-23T07:22:05;7.00;;;2.03;;
23470;SDS011;11908;50.806;4.424;2023-03-23T07:24:32;7.45;;;1.88;;
23470;SDS011;11908;50.806;4.424;2023-03-23T07:26:58;7.82;;;2.55;;
23470;SDS011;11908;50.806;4.424;2023-03-23T07:29:24;6.18;;;2.55;;
23470;SDS011;11908;50.806;4.424;2023-03-23T07:31:50;7.72;;;2.60;;
23470;SDS011;11908;50.806;4.424;2023-03-23T07:34:17;6.32;;;2.60;;
23470;SDS011;11908;50.806;4.424;2023-03-23T07:36:44;3.58;;;1.48;;
23470;SDS011;11908;50.806;4.424;2023-03-23T07:39:10;9.48;;;1.85;;
23470;SDS011;11908;50.806;4.424;2023-03-23T07:41:37;5.13;;;1.75;;
23470;SDS011;11908;50.806;4.424;2023-03-23T07:44:03;5.53;;;1.58;;
23470;SDS011;11908;50.806;4.424;2023-03-23T07:46:29;9.85;;;1.50;;
23470;SDS011;11908;50.806;4.424;2023-03-23T07:48:55;7.65;;;1.88;;
23470;SDS011;11908;50.806;4.424;2023-03-23T07:51:21;8.48;;;1.60;;
23470;SDS011;11908;50.806;4.424;2023-03-23T07:53:47;6.80;;;1.98;;
23470;SDS011;11908;50.806;4.424;2023-03-23T07:56:16;10.13;;;2.55;;
23470;SDS011;11908;50.806;4.424;2023-03-23T07:58:47;6.03;;;1.60;;
23470;SDS011;11908;50.806;4.424;2023-03-23T08:01:13;5.38;;;1.65;;
23470;SDS011;11908;50.806;4.424;2023-03-23T08:03:39;6.78;;;1.90;;
23470;SDS011;11908;50.806;4.424;2023-03-23T08:06:05;4.35;;;1.63;;
23470;SDS011;11908;50.806;4.424;2023-03-23T08:08:31;7.15;;;1.83;;
23470;SDS011;11908;50.806;4.424;2023-03-23T08:10:57;3.28;;;1.20;;
23470;SDS011;11908;50.806;4.424;2023-03-23T08:13:23;4.10;;;1.33;;
23470;SDS011;11908;50.806;4.424;2023-03-23T08:15:49;2.58;;;1.00;;
23470;SDS011;11908;50.806;4.424;2023-03-23T08:18:16;2.83;;;1.05;;
23470;SDS011;11908;50.806;4.424;2023-03-23T08:20:43;2.05;;;0.90;;
23470;SDS011;11908;50.806;4.424;2023-03-23T08:23:09;3.90;;;1.00;;
23470;SDS011;11908;50.806;4.424;2023-03-23T08:25:36;2.00;;;0.80;;
23470;SDS011;11908;50.806;4.424;2023-03-23T08:28:02;1.70;;;0.90;;
23470;SDS011;11908;50.806;4.424;2023-03-23T08:30:29;3.53;;;0.95;;
23470;SDS011;11908;50.806;4.424;2023-03-23T08:32:57;3.28;;;1.20;;
23470;SDS011;11908;50.806;4.424;2023-03-23T08:35:23;4.18;;;0.70;;
23470;SDS011;11908;50.806;4.424;2023-03-23T08:37:49;3.80;;;1.33;;
23470;SDS011;11908;50.806;4.424;2023-03-23T08:40:19;7.85;;;1.55;;
23470;SDS011;11908;50.806;4.424;2023-03-23T08:42:46;5.32;;;0.85;;
23470;SDS011;11908;50.806;4.424;2023-03-23T08:45:14;3.60;;;1.30;;
23470;SDS011;11908;50.806;4.424;2023-03-23T08:47:42;5.28;;;1.15;;
23470;SDS011;11908;50.806;4.424;2023-03-23T08:50:10;6.15;;;1.00;;
23470;SDS011;11908;50.806;4.424;2023-03-23T08:52:38;3.20;;;1.10;;
23470;SDS011;11908;50.806;4.424;2023-03-23T08:55:04;8.10;;;1.40;;
23470;SDS011;11908;50.806;4.424;2023-03-23T08:57:29;2.05;;;1.00;;
23470;SDS011;11908;50.806;4.424;2023-03-23T08:59:55;2.28;;;1.00;;
23470;SDS011;11908;50.806;4.424;2023-03-23T09:02:26;4.47;;;2.03;;
23470;SDS011;11908;50.806;4.424;2023-03-23T09:04:52;4.30;;;0.77;;
23470;SDS011;11908;50.806;4.424;2023-03-23T09:07:21;4.47;;;1.40;;
23470;SDS011;11908;50.806;4.424;2023-03-23T09:09:48;3.92;;;0.95;;
23470;SDS011;11908;50.806;4.424;2023-03-23T09:12:14;4.78;;;1.48;;
23470;SDS011;11908;50.806;4.424;2023-03-23T09:14:40;5.05;;;1.20;;
23470;SDS011;11908;50.806;4.424;2023-03-23T09:17:06;2.85;;;1.02;;
23470;SDS011;11908;50.806;4.424;2023-03-23T09:19:33;3.63;;;0.88;;
23470;SDS011;11908;50.806;4.424;2023-03-23T09:21:59;2.28;;;0.90;;
23470;SDS011;11908;50.806;4.424;2023-03-23T09:24:26;6.10;;;1.25;;
23470;SDS011;11908;50.806;4.424;2023-03-23T09:26:52;4.63;;;1.50;;
23470;SDS011;11908;50.806;4.424;2023-03-23T09:29:18;6.03;;;1.67;;
23470;SDS011;11908;50.806;4.424;2023-03-23T09:31:44;5.03;;;1.30;;
23470;SDS011;11908;50.806;4.424;2023-03-23T09:34:11;2.22;;;1.13;;
23470;SDS011;11908;50.806;4.424;2023-03-23T09:36:38;3.60;;;1.02;;
23470;SDS011;11908;50.806;4.424;2023-03-23T09:39:04;6.53;;;1.42;;
23470;SDS011;11908;50.806;4.424;2023-03-23T09:50:37;3.13;;;0.98;;
23470;SDS011;11908;50.806;4.424;2023-03-23T09:53:14;3.67;;;1.30;;
23470;SDS011;11908;50.806;4.424;2023-03-23T09:55:47;4.80;;;1.33;;
23470;SDS011;11908;50.806;4.424;2023-03-23T10:01:00;4.10;;;1.77;;
23470;SDS011;11908;50.806;4.424;2023-03-23T10:03:34;4.45;;;1.30;;
23470;SDS011;11908;50.806;4.424;2023-03-23T10:06:04;3.28;;;1.45;;
23470;SDS011;11908;50.806;4.424;2023-03-23T10:08:32;2.70;;;1.33;;
23470;SDS011;11908;50.806;4.424;2023-03-23T10:14:22;4.15;;;1.73;;
23470;SDS011;11908;50.806;4.424;2023-03-23T10:16:55;6.00;;;1.75;;
23470;SDS011;11908;50.806;4.424;2023-03-23T10:19:41;5.05;;;1.88;;
23470;SDS011;11908;50.806;4.424;2023-03-23T10:22:14;4.75;;;1.33;;
23470;SDS011;11908;50.806;4.424;2023-03-23T10:24:47;4.68;;;1.85;;
23470;SDS011;11908;50.806;4.424;2023-03-23T10:29:48;3.47;;;1.52;;
23470;SDS011;11908;50.806;4.424;2023-03-23T10:32:36;5.38;;;1.65;;
23470;SDS011;11908;50.806;4.424;2023-03-23T10:35:17;2.40;;;1.55;;
23470;SDS011;11908;50.806;4.424;2023-03-23T10:37:52;2.58;;;1.55;;
23470;SDS011;11908;50.806;4.424;2023-03-23T10:40:24;6.50;;;1.70;;
23470;SDS011;11908;50.806;4.424;2023-03-23T10:42:53;4.47;;;1.50;;
23470;SDS011;11908;50.806;4.424;2023-03-23T10:45:24;3.47;;;1.40;;
23470;SDS011;11908;50.806;4.424;2023-03-23T10:48:04;4.95;;;1.60;;
23470;SDS011;11908;50.806;4.424;2023-03-23T10:50:37;7.93;;;1.98;;
23470;SDS011;11908;50.806;4.424;2023-03-23T10:53:11;7.43;;;2.13;;
23470;SDS011;11908;50.806;4.424;2023-03-23T10:55:45;6.00;;;1.80;;
23470;SDS011;11908;50.806;4.424;2023-03-23T10:58:33;5.18;;;1.83;;
23470;SDS011;11908;50.806;4.424;2023-03-23T11:01:00;5.88;;;2.00;;
23470;SDS011;11908;50.806;4.424;2023-03-23T11:03:39;3.95;;;1.70;;
23470;SDS011;11908;50.806;4.424;2023-03-23T11:06:11;4.90;;;1.73;;
23470;SDS011;11908;50.806;4.424;2023-03-23T11:08:55;8.20;;;2.00;;
23470;SDS011;11908;50.806;4.424;2023-03-23T11:11:26;7.60;;;2.20;;
23470;SDS011;11908;50.806;4.424;2023-03-23T11:14:01;4.57;;;1.83;;
23470;SDS011;11908;50.806;4.424;2023-03-23T11:16:42;7.53;;;2.05;;
23470;SDS011;11908;50.806;4.424;2023-03-23T11:19:14;5.85;;;2.05;;
23470;SDS011;11908;50.806;4.424;2023-03-23T11:21:45;5.68;;;1.70;;
23470;SDS011;11908;50.806;4.424;2023-03-23T11:24:14;7.80;;;2.40;;
23470;SDS011;11908;50.806;4.424;2023-03-23T11:26:40;6.63;;;1.80;;
23470;SDS011;11908;50.806;4.424;2023-03-23T11:29:14;5.80;;;1.98;;
23470;SDS011;11908;50.806;4.424;2023-03-23T11:31:45;4.88;;;2.08;;
23470;SDS011;11908;50.806;4.424;2023-03-23T11:34:30;5.13;;;2.03;;
23470;SDS011;11908;50.806;4.424;2023-03-23T11:37:01;10.05;;;2.38;;
23470;SDS011;11908;50.806;4.424;2023-03-23T11:42:21;6.03;;;2.20;;
23470;SDS011;11908;50.806;4.424;2023-03-23T11:44:48;9.07;;;2.05;;
23470;SDS011;11908;50.806;4.424;2023-03-23T11:47:35;10.32;;;2.03;;
23470;SDS011;11908;50.806;4.424;2023-03-23T11:50:16;7.70;;;1.77;;
23470;SDS011;11908;50.806;4.424;2023-03-23T11:55:32;10.65;;;2.47;;
23470;SDS011;11908;50.806;4.424;2023-03-23T11:58:11;7.47;;;1.88;;
23470;SDS011;11908;50.806;4.424;2023-03-23T12:03:38;6.50;;;1.65;;
23470;SDS011;11908;50.806;4.424;2023-03-23T12:17:34;6.32;;;1.80;;
23470;SDS011;11908;50.806;4.424;2023-03-23T12:22:55;6.10;;;1.80;;
23470;SDS011;11908;50.806;4.424;2023-03-23T12:31:10;6.13;;;1.80;;
23470;SDS011;11908;50.806;4.424;2023-03-23T12:37:20;9.32;;;2.10;;
23470;SDS011;11908;50.806;4.424;2023-03-23T12:48:13;9.10;;;1.90;;
23470;SDS011;11908;50.806;4.424;2023-03-23T12:51:27;10.48;;;2.10;;
23470;SDS011;11908;50.806;4.424;2023-03-23T12:53:45;9.60;;;2.03;;
23470;SDS011;11908;50.806;4.424;2023-03-23T12:59:11;7.90;;;2.67;;
23470;SDS011;11908;50.806;4.424;2023-03-23T13:01:59;7.10;;;2.60;;
23470;SDS011;11908;50.806;4.424;2023-03-23T13:04:40;11.07;;;2.78;;
23470;SDS011;11908;50.806;4.424;2023-03-23T13:07:12;7.32;;;3.00;;
23470;SDS011;11908;50.806;4.424;2023-03-23T13:12:15;7.60;;;2.47;;
23470;SDS011;11908;50.806;4.424;2023-03-23T13:28:23;8.90;;;1.80;;
23470;SDS011;11908;50.806;4.424;2023-03-23T13:33:37;6.80;;;2.22;;
23470;SDS011;11908;50.806;4.424;2023-03-23T13:36:12;11.65;;;2.28;;
23470;SDS011;11908;50.806;4.424;2023-03-23T13:38:47;9.15;;;2.50;;
23470;SDS011;11908;50.806;4.424;2023-03-23T13:41:15;7.85;;;2.05;;
23470;SDS011;11908;50.806;4.424;2023-03-23T13:43:43;9.45;;;2.38;;
23470;SDS011;11908;50.806;4.424;2023-03-23T13:46:23;9.73;;;2.28;;
23470;SDS011;11908;50.806;4.424;2023-03-23T13:51:47;7.63;;;2.30;;
23470;SDS011;11908;50.806;4.424;2023-03-23T13:54:29;5.63;;;2.00;;
23470;SDS011;11908;50.806;4.424;2023-03-23T13:56:58;5.63;;;2.30;;
23470;SDS011;11908;50.806;4.424;2023-03-23T13:59:30;13.43;;;2.47;;
23470;SDS011;11908;50.806;4.424;2023-03-23T14:04:54;11.07;;;2.35;;
23470;SDS011;11908;50.806;4.424;2023-03-23T14:07:23;9.15;;;2.42;;
23470;SDS011;11908;50.806;4.424;2023-03-23T14:09:50;10.32;;;2.20;;
23470;SDS011;11908;50.806;4.424;2023-03-23T14:12:20;11.50;;;2.70;;
23470;SDS011;11908;50.806;4.424;2023-03-23T14:14:51;10.85;;;2.33;;
23470;SDS011;11908;50.806;4.424;2023-03-23T14:17:30;11.40;;;2.35;;
23470;SDS011;11908;50.806;4.424;2023-03-23T14:19:58;10.77;;;2.60;;
23470;SDS011;11908;50.806;4.424;2023-03-23T14:22:26;8.35;;;2.50;;
23470;SDS011;11908;50.806;4.424;2023-03-23T14:24:59;9.20;;;2.42;;
23470;SDS011;11908;50.806;4.424;2023-03-23T14:27:34;10.55;;;2.60;;
23470;SDS011;11908;50.806;4.424;2023-03-23T14:30:00;14.40;;;3.45;;
23470;SDS011;11908;50.806;4.424;2023-03-23T14:32:30;11.35;;;2.80;;
23470;SDS011;11908;50.806;4.424;2023-03-23T14:34:57;9.50;;;3.00;;
23470;SDS011;11908;50.806;4.424;2023-03-23T14:37:26;9.90;;;2.67;;
23470;SDS011;11908;50.806;4.424;2023-03-23T14:39:53;12.23;;;3.85;;
23470;SDS011;11908;50.806;4.424;2023-03-23T14:42:26;10.95;;;3.42;;
23470;SDS011;11908;50.806;4.424;2023-03-23T14:44:55;13.23;;;3.22;;
23470;SDS011;11908;50.806;4.424;2023-03-23T14:47:22;8.25;;;2.85;;
23470;SDS011;11908;50.806;4.424;2023-03-23T14:49:55;8.93;;;2.60;;
23470;SDS011;11908;50.806;4.424;2023-03-23T14:52:24;11.40;;;2.55;;
23470;SDS011;11908;50.806;4.424;2023-03-23T14:54:52;9.60;;;2.50;;
23470;SDS011;11908;50.806;4.424;2023-03-23T14:57:18;8.23;;;2.13;;
23470;SDS011;11908;50.806;4.424;2023-03-23T14:59:56;9.80;;;2.40;;
23470;SDS011;11908;50.806;4.424;2023-03-23T15:02:29;7.45;;;2.40;;
23470;SDS011;11908;50.806;4.424;2023-03-23T15:05:00;10.57;;;2.28;;
23470;SDS011;11908;50.806;4.424;2023-03-23T15:07:48;7.07;;;2.10;;
23470;SDS011;11908;50.806;4.424;2023-03-23T15:10:19;8.10;;;2.40;;
23470;SDS011;11908;50.806;4.424;2023-03-23T15:12:47;9.43;;;2.30;;
23470;SDS011;11908;50.806;4.424;2023-03-23T15:15:26;10.95;;;2.75;;
23470;SDS011;11908;50.806;4.424;2023-03-23T15:17:55;8.13;;;2.45;;
23470;SDS011;11908;50.806;4.424;2023-03-23T15:22:53;10.00;;;2.55;;
23470;SDS011;11908;50.806;4.424;2023-03-23T15:25:21;11.43;;;2.55;;
23470;SDS011;11908;50.806;4.424;2023-03-23T15:27:56;11.02;;;2.55;;
23470;SDS011;11908;50.806;4.424;2023-03-23T15:30:33;10.73;;;2.85;;
23470;SDS011;11908;50.806;4.424;2023-03-23T15:33:08;8.35;;;2.40;;
23470;SDS011;11908;50.806;4.424;2023-03-23T15:35:36;8.90;;;2.58;;
23470;SDS011;11908;50.806;4.424;2023-03-23T15:38:05;13.57;;;3.20;;
23470;SDS011;11908;50.806;4.424;2023-03-23T15:40:35;13.65;;;3.10;;
23470;SDS011;11908;50.806;4.424;2023-03-23T15:43:15;8.18;;;2.53;;
23470;SDS011;11908;50.806;4.424;2023-03-23T15:48:28;9.32;;;2.90;;
23470;SDS011;11908;50.806;4.424;2023-03-23T15:50:55;14.00;;;3.03;;
23470;SDS011;11908;50.806;4.424;2023-03-23T15:53:31;14.73;;;3.45;;
23470;SDS011;11908;50.806;4.424;2023-03-23T15:56:03;7.25;;;2.30;;
23470;SDS011;11908;50.806;4.424;2023-03-23T15:58:30;8.73;;;2.70;;
23470;SDS011;11908;50.806;4.424;2023-03-23T16:00:57;10.50;;;2.88;;
23470;SDS011;11908;50.806;4.424;2023-03-23T16:03:40;10.55;;;2.97;;
23470;SDS011;11908;50.806;4.424;2023-03-23T16:06:13;10.25;;;3.20;;
23470;SDS011;11908;50.806;4.424;2023-03-23T16:08:40;11.73;;;3.15;;
23470;SDS011;11908;50.806;4.424;2023-03-23T16:11:13;7.53;;;2.70;;
23470;SDS011;11908;50.806;4.424;2023-03-23T16:13:41;7.50;;;2.92;;
23470;SDS011;11908;50.806;4.424;2023-03-23T16:16:41;11.38;;;3.05;;
23470;SDS011;11908;50.806;4.424;2023-03-23T16:19:01;10.43;;;2.80;;
23470;SDS011;11908;50.806;4.424;2023-03-23T16:21:27;12.07;;;3.13;;
23470;SDS011;11908;50.806;4.424;2023-03-23T16:23:53;7.70;;;2.25;;
23470;SDS011;11908;50.806;4.424;2023-03-23T16:26:19;8.80;;;2.13;;
23470;SDS011;11908;50.806;4.424;2023-03-23T16:28:45;9.70;;;3.00;;
23470;SDS011;11908;50.806;4.424;2023-03-23T16:31:11;7.20;;;2.78;;
23470;SDS011;11908;50.806;4.424;2023-03-23T16:33:37;10.13;;;2.50;;
23470;SDS011;11908;50.806;4.424;2023-03-23T16:36:02;8.10;;;2.65;;
23470;SDS011;11908;50.806;4.424;2023-03-23T16:38:28;13.63;;;2.70;;
23470;SDS011;11908;50.806;4.424;2023-03-23T16:40:54;10.57;;;2.78;;
23470;SDS011;11908;50.806;4.424;2023-03-23T16:43:20;8.27;;;2.65;;
23470;SDS011;11908;50.806;4.424;2023-03-23T16:45:46;8.80;;;2.60;;
23470;SDS011;11908;50.806;4.424;2023-03-23T16:48:12;7.05;;;2.72;;
23470;SDS011;11908;50.806;4.424;2023-03-23T16:50:40;11.20;;;2.60;;
23470;SDS011;11908;50.806;4.424;2023-03-23T16:53:07;9.43;;;2.97;;